createdAt,value
2019-04-27T00:01:48.477Z,100995.21
2019-04-27T00:04:25.320Z,101002.88
2019-04-27T00:06:56.068Z,101007.38
2019-04-27T00:09:43.101Z,101015.39
2019-04-27T00:12:16.411Z,101016.70
2019-04-27T00:14:44.099Z,101014.19
2019-04-27T00:17:40.439Z,101004.88
2019-04-27T00:19:55.779Z,100991.89
2019-04-27T00:22:33.576Z,100978.73
2019-04-27T00:25:03.503Z,100978.73
2019-04-27T00:27:33.537Z,100964.38
2019-04-27T00:30:05.855Z,100966.53
2019-04-27T00:32:34.282Z,100964.21
2019-04-27T00:35:03.748Z,100962.36
2019-04-27T00:37:36.637Z,100963.89
2019-04-27T00:40:14.771Z,100960.38
2019-04-27T00:42:45.724Z,100960.87
2019-04-27T00:45:16.765Z,100956.88
2019-04-27T00:47:56.590Z,100950.52
2019-04-27T00:50:16.668Z,100947.53
2019-04-27T00:52:45.631Z,100937.86
2019-04-27T00:55:14.045Z,100935.52
2019-04-27T00:58:00.398Z,100926.87
2019-04-27T01:00:33.747Z,100924.22
2019-04-27T01:03:03.968Z,100910.36
2019-04-27T01:05:33.766Z,100908.53
2019-04-27T01:08:03.820Z,100907.18
2019-04-27T01:10:33.450Z,100894.54
2019-04-27T01:13:05.821Z,100885.69
2019-04-27T01:15:34.394Z,100884.66
2019-04-27T01:18:11.979Z,100873.66
2019-04-27T01:20:32.989Z,100872.99
2019-04-27T01:23:01.619Z,100752.44
2019-04-27T01:25:31.681Z,100889.17
2019-04-27T01:28:18.614Z,100898.85
2019-04-27T01:30:49.041Z,100898.50
2019-04-27T01:33:17.491Z,100891.84
2019-04-27T01:35:45.973Z,100894.52
2019-04-27T01:38:14.401Z,100892.38
2019-04-27T01:40:42.811Z,100887.53
2019-04-27T01:43:11.258Z,100887.58
2019-04-27T01:45:43.623Z,100889.22
2019-04-27T01:48:23.623Z,100882.39
2019-04-27T01:50:47.097Z,100895.23
2019-04-27T01:53:15.638Z,100889.21
2019-04-27T01:55:44.050Z,100892.59
2019-04-27T01:58:12.586Z,100906.58
2019-04-27T02:01:01.262Z,100910.75
2019-04-27T02:03:33.279Z,100910.91
2019-04-27T02:06:02.083Z,100906.91
2019-04-27T02:08:30.565Z,100920.58
2019-04-27T02:10:59.489Z,100926.24
2019-04-27T02:13:29.036Z,100922.25
2019-04-27T02:15:58.846Z,100927.08
2019-04-27T02:18:35.611Z,100925.92
2019-04-27T02:20:59.156Z,100924.41
2019-04-27T02:23:29.304Z,100928.92
2019-04-27T02:25:58.598Z,100917.27
2019-04-27T02:28:29.494Z,100903.92
2019-04-27T02:31:19.555Z,100902.11
2019-04-27T02:33:52.766Z,100898.28
2019-04-27T02:36:21.173Z,100898.28
2019-04-27T02:38:50.165Z,100907.60
2019-04-27T02:41:19.919Z,100899.93
2019-04-27T02:43:50.177Z,100901.45
2019-04-27T02:46:20.174Z,100901.63
2019-04-27T02:48:59.658Z,100912.77
2019-04-27T02:51:42.464Z,100907.59
2019-04-27T02:54:12.052Z,100907.09
2019-04-27T02:56:40.557Z,100905.94
2019-04-27T02:59:11.879Z,100899.44
2019-04-27T03:01:50.300Z,100894.61
2019-04-27T03:04:20.492Z,100889.28
2019-04-27T03:06:50.080Z,100896.29
2019-04-27T03:09:20.510Z,100892.95
2019-04-27T03:11:49.961Z,100894.78
2019-04-27T03:14:34.932Z,100890.11
2019-04-27T03:17:00.169Z,100885.30
2019-04-27T03:19:30.047Z,100885.95
2019-04-27T03:22:00.340Z,100891.78
2019-04-27T03:24:46.582Z,100882.62
2019-04-27T03:27:16.644Z,100881.64
2019-04-27T03:29:45.302Z,100885.95
2019-04-27T03:32:13.907Z,100888.97
2019-04-27T03:34:42.344Z,100878.64
2019-04-27T03:37:10.955Z,100882.97
2019-04-27T03:39:39.860Z,100882.97
2019-04-27T03:42:10.467Z,100885.13
2019-04-27T03:44:39.767Z,100885.30
2019-04-27T03:47:10.023Z,100889.62
2019-04-27T03:49:41.587Z,100889.61
2019-04-27T03:52:14.445Z,100889.62
2019-04-27T03:55:00.653Z,100884.80
2019-04-27T03:57:33.268Z,100889.97
2019-04-27T04:00:03.385Z,100883.29
2019-04-27T04:02:31.806Z,100885.63
2019-04-27T04:05:04.102Z,100881.48
2019-04-27T04:07:32.515Z,100880.96
2019-04-27T04:10:00.930Z,100881.98
2019-04-27T04:12:36.072Z,100884.63
2019-04-27T04:15:10.007Z,100880.63
2019-04-27T04:17:40.250Z,100885.14
2019-04-27T04:20:10.206Z,100891.64
2019-04-27T04:22:40.357Z,100886.13
2019-04-27T04:25:10.703Z,100884.46
2019-04-27T04:27:42.813Z,100892.12
2019-04-27T04:30:12.432Z,100891.80
2019-04-27T04:32:41.123Z,100890.47
2019-04-27T04:35:21.603Z,100888.13
2019-04-27T04:37:52.774Z,100883.47
2019-04-27T04:40:25.250Z,100879.62
2019-04-27T04:42:55.380Z,100884.45
2019-04-27T04:45:25.532Z,100877.46
2019-04-27T04:47:55.660Z,100881.98
2019-04-27T04:50:30.248Z,100885.14
2019-04-27T04:53:00.143Z,100883.12
2019-04-27T04:55:30.476Z,100883.11
2019-04-27T04:57:59.105Z,100879.31
2019-04-27T05:00:29.861Z,100882.97
2019-04-27T05:02:59.693Z,100890.11
2019-04-27T05:05:29.315Z,100883.29
2019-04-27T05:08:00.769Z,100882.97
2019-04-27T05:10:28.795Z,100880.28
2019-04-27T05:12:59.077Z,100883.98
2019-04-27T05:15:29.317Z,100874.80
2019-04-27T05:17:59.192Z,100863.80
2019-04-27T05:20:32.722Z,100867.64
2019-04-27T05:23:01.132Z,100863.83
2019-04-27T05:25:30.502Z,100863.66
2019-04-27T05:27:59.675Z,100862.31
2019-04-27T05:30:28.708Z,100858.48
2019-04-27T05:32:58.581Z,100859.32
2019-04-27T05:35:27.114Z,100860.15
2019-04-27T05:37:55.542Z,100861.32
2019-04-27T05:40:24.019Z,100858.67
2019-04-27T05:42:56.244Z,100861.34
2019-04-27T05:45:57.770Z,100855.16
2019-04-27T05:48:30.756Z,100860.80
2019-04-27T05:51:04.977Z,100857.63
2019-04-27T05:53:34.459Z,100863.80
2019-04-27T05:56:05.982Z,100856.65
2019-04-27T05:58:34.562Z,100856.98
2019-04-27T06:01:02.968Z,100863.61
2019-04-27T06:03:31.457Z,100860.79
2019-04-27T06:06:15.682Z,100852.12
2019-04-27T06:08:49.512Z,100852.30
2019-04-27T06:11:19.532Z,100847.61
2019-04-27T06:13:49.252Z,100848.95
2019-04-27T06:16:19.504Z,100842.88
2019-04-27T06:18:49.360Z,100836.50
2019-04-27T06:21:19.427Z,100842.02
2019-04-27T06:23:48.808Z,100839.76
2019-04-27T06:26:17.288Z,100830.14
2019-04-27T06:28:45.744Z,100832.61
2019-04-27T06:31:15.219Z,100833.02
2019-04-27T06:33:43.671Z,100824.82
2019-04-27T06:36:14.593Z,100824.55
2019-04-27T06:38:43.032Z,100826.38
2019-04-27T06:41:11.433Z,100827.71
2019-04-27T06:43:41.838Z,100827.19
2019-04-27T06:46:10.273Z,100830.61
2019-04-27T06:48:39.459Z,100819.87
2019-04-27T06:51:09.684Z,100825.68
2019-04-27T06:53:39.443Z,100824.11
2019-04-27T06:56:08.947Z,100823.50
2019-04-27T06:58:38.928Z,100821.00
2019-04-27T07:01:10.754Z,100821.63
2019-04-27T07:03:39.553Z,100553.30
2019-04-27T07:06:08.855Z,100817.16
2019-04-27T07:08:37.460Z,100812.53
2019-04-27T07:11:05.982Z,100817.33
2019-04-27T07:13:34.388Z,100822.14
2019-04-27T07:16:03.098Z,100817.42
2019-04-27T07:18:35.363Z,100813.76
2019-04-27T07:21:16.000Z,100810.45
2019-04-27T07:23:33.314Z,100806.89
2019-04-27T07:26:01.847Z,100802.75
2019-04-27T07:28:34.049Z,100804.18
2019-04-27T07:31:02.822Z,100801.48
2019-04-27T07:33:31.185Z,100790.00
2019-04-27T07:35:59.639Z,100789.87
2019-04-27T07:38:29.364Z,100791.94
2019-04-27T07:40:58.693Z,100786.92
2019-04-27T07:43:39.654Z,100795.28
2019-04-27T07:46:08.880Z,100785.30
2019-04-27T07:48:41.791Z,100785.66
2019-04-27T07:51:10.210Z,100784.61
2019-04-27T07:53:42.298Z,100783.30
2019-04-27T07:56:10.808Z,100774.83
2019-04-27T07:58:39.653Z,100783.45
2019-04-27T08:01:09.294Z,100773.87
2019-04-27T08:03:39.045Z,100786.66
2019-04-27T08:06:08.476Z,100786.81
2019-04-27T08:08:39.651Z,100768.52
2019-04-27T08:11:08.852Z,100785.81
2019-04-27T08:13:39.349Z,100782.42
2019-04-27T08:16:08.681Z,100786.81
2019-04-27T08:18:37.305Z,100787.23
2019-04-27T08:21:05.737Z,100787.26
2019-04-27T08:23:34.141Z,100784.94
2019-04-27T08:26:04.258Z,100779.09
2019-04-27T08:28:34.333Z,100777.52
2019-04-27T08:31:16.487Z,100781.03
2019-04-27T08:33:44.914Z,100783.48
2019-04-27T08:36:14.497Z,100782.90
2019-04-27T08:38:42.930Z,100783.27
2019-04-27T08:41:15.382Z,100781.27
2019-04-27T08:43:43.787Z,100781.82
2019-04-27T08:46:12.261Z,100780.16
2019-04-27T08:48:40.722Z,100786.61
2019-04-27T08:51:10.131Z,100785.01
2019-04-27T08:53:39.754Z,100782.27
2019-04-27T08:56:09.384Z,100783.92
2019-04-27T08:58:38.611Z,100780.77
2019-04-27T09:01:10.362Z,100778.12
2019-04-27T09:03:39.503Z,100495.02
2019-04-27T09:06:10.646Z,100774.60
2019-04-27T09:08:41.433Z,100773.20
2019-04-27T09:11:18.669Z,100770.88
2019-04-27T09:13:53.221Z,100771.73
2019-04-27T09:16:28.837Z,100770.28
2019-04-27T09:18:59.735Z,100761.72
2019-04-27T09:21:30.988Z,100756.70
2019-04-27T09:23:59.631Z,100752.66
2019-04-27T09:26:28.727Z,100757.00
2019-04-27T09:28:57.405Z,100752.73
2019-04-27T09:31:25.892Z,100747.48
2019-04-27T09:33:55.009Z,100751.19
2019-04-27T09:36:26.013Z,100746.73
2019-04-27T09:38:56.455Z,100741.80
2019-04-27T09:41:26.298Z,100735.50
2019-04-27T09:44:10.492Z,100742.97
2019-04-27T09:46:40.458Z,100737.97
2019-04-27T09:49:20.260Z,100738.26
2019-04-27T09:51:49.754Z,100732.79
2019-04-27T09:54:18.344Z,100723.47
2019-04-27T09:56:47.046Z,100722.44
2019-04-27T09:59:16.715Z,100727.28
2019-04-27T10:01:47.981Z,100729.33
2019-04-27T10:04:17.684Z,100726.05
2019-04-27T10:06:48.589Z,100726.48
2019-04-27T10:09:16.445Z,100714.23
2019-04-27T10:11:47.197Z,100717.81
2019-04-27T10:14:16.352Z,100720.62
2019-04-27T10:16:46.738Z,100712.43
2019-04-27T10:19:27.958Z,100716.78
2019-04-27T10:21:46.753Z,100715.25
2019-04-27T10:24:16.311Z,100715.36
2019-04-27T10:26:44.764Z,100707.25
2019-04-27T10:29:13.257Z,100716.06
2019-04-27T10:31:41.685Z,100713.68
2019-04-27T10:34:11.215Z,100716.98
2019-04-27T10:36:46.084Z,100710.38
2019-04-27T10:39:17.191Z,100710.00
2019-04-27T10:41:46.346Z,100699.04
2019-04-27T10:44:16.357Z,100694.96
2019-04-27T10:46:44.761Z,100689.41
2019-04-27T10:49:13.173Z,100686.93
2019-04-27T10:51:41.606Z,100677.74
2019-04-27T10:54:10.025Z,100679.41
2019-04-27T10:56:42.322Z,100683.08
2019-04-27T10:59:10.007Z,100680.71
2019-04-27T11:01:39.378Z,100677.02
2019-04-27T11:04:15.958Z,100679.98
2019-04-27T11:06:46.683Z,100683.13
2019-04-27T11:09:16.306Z,100682.83
2019-04-27T11:11:46.380Z,100687.16
2019-04-27T11:14:16.010Z,100682.72
2019-04-27T11:16:45.976Z,100678.53
2019-04-27T11:19:16.725Z,100677.92
2019-04-27T11:21:55.049Z,100665.56
2019-04-27T11:24:25.843Z,100664.72
2019-04-27T11:26:56.804Z,100655.65
2019-04-27T11:29:25.698Z,100651.54
2019-04-27T11:32:05.807Z,100654.95
2019-04-27T11:34:52.192Z,100662.49
2019-04-27T11:37:23.387Z,100669.88
2019-04-27T11:39:51.857Z,100655.73
2019-04-27T11:42:20.266Z,100657.25
2019-04-27T11:44:55.429Z,100655.81
2019-04-27T11:47:23.222Z,100659.16
2019-04-27T11:49:51.632Z,100657.31
2019-04-27T11:52:20.055Z,100650.96
2019-04-27T11:54:48.479Z,100651.95
2019-04-27T11:57:18.143Z,100651.29
2019-04-27T11:59:49.094Z,100651.23
2019-04-27T12:02:19.078Z,100652.52
2019-04-27T12:04:47.489Z,100643.20
2019-04-27T12:07:16.084Z,100641.28
2019-04-27T12:09:46.224Z,100645.14
2019-04-27T12:12:21.733Z,100638.30
2019-04-27T12:14:56.030Z,100644.41
2019-04-27T12:17:29.231Z,100639.58
2019-04-27T12:19:57.689Z,100633.47
2019-04-27T12:22:28.788Z,100638.88
2019-04-27T12:24:57.234Z,100634.55
2019-04-27T12:27:45.794Z,100630.39
2019-04-27T12:30:17.393Z,100628.16
2019-04-27T12:32:45.888Z,100627.83
2019-04-27T12:35:14.346Z,100628.95
2019-04-27T12:37:43.135Z,100624.19
2019-04-27T12:40:11.822Z,100618.42
2019-04-27T12:42:42.926Z,100620.41
2019-04-27T12:45:11.532Z,100619.77
2019-04-27T12:47:40.058Z,100618.51
2019-04-27T12:50:13.325Z,100616.34
2019-04-27T12:52:43.409Z,100626.16
2019-04-27T12:55:17.062Z,100624.88
2019-04-27T12:57:50.196Z,100620.61
2019-04-27T13:00:23.666Z,100623.70
2019-04-27T13:02:53.758Z,100615.91
2019-04-27T13:05:22.267Z,100612.27
2019-04-27T13:07:50.712Z,100613.42
2019-04-27T13:10:19.501Z,100607.08
2019-04-27T13:12:47.969Z,100606.80
2019-04-27T13:15:17.241Z,100605.34
2019-04-27T13:17:46.676Z,100604.41
2019-04-27T13:20:17.221Z,100601.18
2019-04-27T13:22:45.963Z,100601.61
2019-04-27T13:25:17.063Z,100599.03
2019-04-27T13:27:45.504Z,100592.03
2019-04-27T13:30:16.316Z,100594.22
2019-04-27T13:32:46.938Z,100593.02
2019-04-27T13:35:16.858Z,100594.80
2019-04-27T13:37:46.761Z,100593.65
2019-04-27T13:40:17.199Z,100594.73
2019-04-27T13:42:47.682Z,100596.77
2019-04-27T13:45:20.957Z,100591.62
2019-04-27T13:47:57.432Z,100588.77
2019-04-27T13:50:27.529Z,100587.33
2019-04-27T13:53:01.722Z,100589.09
2019-04-27T13:55:33.079Z,100585.39
2019-04-27T13:58:03.389Z,100583.17
2019-04-27T14:00:37.777Z,100587.91
2019-04-27T14:03:06.312Z,100585.13
2019-04-27T14:05:34.743Z,100585.98
2019-04-27T14:08:03.393Z,100579.04
2019-04-27T14:10:32.956Z,100581.64
2019-04-27T14:13:04.173Z,100587.91
2019-04-27T14:15:32.646Z,100604.48
2019-04-27T14:18:02.694Z,100622.61
2019-04-27T14:20:34.170Z,100631.28
2019-04-27T14:23:10.419Z,100646.95
2019-04-27T14:25:39.812Z,100648.05
2019-04-27T14:28:08.583Z,100647.94
2019-04-27T14:30:38.121Z,100652.01
2019-04-27T14:33:10.260Z,100649.36
2019-04-27T14:35:39.992Z,100647.58
2019-04-27T14:38:09.126Z,100659.88
2019-04-27T14:40:39.243Z,100671.03
2019-04-27T14:43:10.644Z,100672.93
2019-04-27T14:45:40.103Z,100681.20
2019-04-27T14:48:12.816Z,100685.55
2019-04-27T14:50:50.641Z,100693.44
2019-04-27T14:53:22.153Z,100701.77
2019-04-27T14:55:54.204Z,100701.02
2019-04-27T14:58:25.989Z,100700.05
2019-04-27T15:00:54.456Z,100700.15
2019-04-27T15:03:22.898Z,100695.90
2019-04-27T15:05:55.289Z,100695.99
2019-04-27T15:08:28.458Z,100692.50
2019-04-27T15:10:59.324Z,100679.54
2019-04-27T15:13:27.935Z,100688.33
2019-04-27T15:15:56.377Z,100680.58
2019-04-27T15:18:26.535Z,100677.50
2019-04-27T15:20:58.447Z,100681.34
2019-04-27T15:23:26.579Z,100691.64
2019-04-27T15:26:00.011Z,100686.16
2019-04-27T15:28:31.957Z,100688.67
2019-04-27T15:31:06.500Z,100693.46
2019-04-27T15:33:54.671Z,100694.80
2019-04-27T15:36:28.661Z,100702.13
2019-04-27T15:38:59.747Z,100699.43
2019-04-27T15:41:40.390Z,100695.99
2019-04-27T15:44:09.549Z,100697.89
2019-04-27T15:46:40.029Z,100703.39
2019-04-27T15:49:11.241Z,100698.86
2019-04-27T15:51:41.139Z,100703.38
2019-04-27T15:54:09.674Z,100703.48
2019-04-27T15:56:38.241Z,100703.38
2019-04-27T15:59:08.136Z,100709.48
2019-04-27T16:01:39.502Z,100705.95
2019-04-27T16:04:18.423Z,100706.70
2019-04-27T16:06:48.628Z,100711.80
2019-04-27T16:09:24.222Z,100716.48
2019-04-27T16:11:57.684Z,100721.00
2019-04-27T16:14:19.334Z,100723.65
2019-04-27T16:16:48.782Z,100725.23
2019-04-27T16:19:18.409Z,100721.98
2019-04-27T16:21:50.164Z,100723.17
2019-04-27T16:24:21.258Z,100730.82
2019-04-27T16:26:56.026Z,100732.55
2019-04-27T16:29:38.902Z,100739.84
2019-04-27T16:32:11.510Z,100738.87
2019-04-27T16:34:41.255Z,100743.08
2019-04-27T16:37:13.904Z,100749.72
2019-04-27T16:39:49.430Z,100744.22
2019-04-27T16:42:18.614Z,100755.32
2019-04-27T16:44:53.113Z,100752.55
2019-04-27T16:47:24.488Z,100751.81
2019-04-27T16:49:51.137Z,100754.75
2019-04-27T16:52:23.391Z,100755.09
2019-04-27T16:54:57.159Z,100758.20
2019-04-27T16:57:23.597Z,100764.58
2019-04-27T16:59:57.714Z,100767.59
2019-04-27T17:02:25.150Z,100765.98
2019-04-27T17:04:55.533Z,100767.72
2019-04-27T17:07:22.504Z,100770.33
2019-04-27T17:09:50.939Z,100767.55
2019-04-27T17:12:23.712Z,100774.25
2019-04-27T17:14:53.853Z,100776.94
2019-04-27T17:17:23.893Z,100771.30
2019-04-27T17:19:54.281Z,100766.16
2019-04-27T17:22:22.763Z,100768.66
2019-04-27T17:24:51.236Z,100775.31
2019-04-27T17:27:28.634Z,100776.00
2019-04-27T17:29:57.973Z,100775.41
2019-04-27T17:32:33.479Z,100772.95
2019-04-27T17:35:04.992Z,100774.74
2019-04-27T17:37:33.769Z,100775.78
2019-04-27T17:40:02.182Z,100782.23
2019-04-27T17:42:31.047Z,100785.59
2019-04-27T17:45:00.564Z,100787.63
2019-04-27T17:47:30.043Z,100785.52
2019-04-27T17:49:58.667Z,100783.69
2019-04-27T17:52:27.076Z,100787.17
2019-04-27T17:54:55.485Z,100787.95
2019-04-27T17:57:26.466Z,100791.06
2019-04-27T17:59:58.843Z,100793.05
2019-04-27T18:02:24.245Z,100791.27
2019-04-27T18:04:52.667Z,100789.63
2019-04-27T18:07:21.086Z,100789.27
2019-04-27T18:09:49.509Z,100794.47
2019-04-27T18:12:20.038Z,100794.39
2019-04-27T18:14:48.435Z,100790.78
2019-04-27T18:17:19.682Z,100788.92
2019-04-27T18:19:51.417Z,100792.09
2019-04-27T18:22:20.168Z,100788.17
2019-04-27T18:24:50.375Z,100796.33
2019-04-27T18:27:26.325Z,100795.94
2019-04-27T18:29:59.254Z,100799.55
2019-04-27T18:32:27.728Z,100794.71
2019-04-27T18:34:58.456Z,100805.87
2019-04-27T18:37:28.278Z,100805.05
2019-04-27T18:39:58.156Z,100809.72
2019-04-27T18:42:28.059Z,100626.31
2019-04-27T18:45:06.053Z,100824.52
2019-04-27T18:47:31.210Z,100823.63
2019-04-27T18:50:19.625Z,100821.30
2019-04-27T18:52:50.290Z,100823.04
2019-04-27T18:55:20.845Z,100827.31
2019-04-27T18:57:51.040Z,100830.55
2019-04-27T19:00:21.624Z,100838.38
2019-04-27T19:02:50.502Z,100839.16
2019-04-27T19:05:19.159Z,100840.21
2019-04-27T19:07:48.447Z,100844.83
2019-04-27T19:10:19.039Z,100848.23
2019-04-27T19:12:48.390Z,100851.88
2019-04-27T19:15:18.348Z,100856.70
2019-04-27T19:17:48.741Z,100862.55
2019-04-27T19:20:18.633Z,100877.37
2019-04-27T19:22:49.010Z,100882.97
2019-04-27T19:25:19.256Z,100888.48
2019-04-27T19:28:06.120Z,100878.34
2019-04-27T19:30:36.173Z,100880.05
2019-04-27T19:33:07.649Z,100889.05
2019-04-27T19:35:37.950Z,100881.12
2019-04-27T19:38:08.176Z,100889.72
2019-04-27T19:40:37.985Z,100881.02
2019-04-27T19:43:06.475Z,100881.05
2019-04-27T19:45:35.514Z,100877.71
2019-04-27T19:48:03.961Z,100874.70
2019-04-27T19:50:32.419Z,100883.05
2019-04-27T19:53:00.808Z,100879.41
2019-04-27T19:55:29.256Z,100886.94
2019-04-27T19:57:59.439Z,100888.12
2019-04-27T20:00:48.434Z,100896.42
2019-04-27T20:03:19.299Z,100907.83
2019-04-27T20:05:47.870Z,100904.52
2019-04-27T20:08:23.590Z,100901.67
2019-04-27T20:10:52.006Z,100904.19
2019-04-27T20:13:21.982Z,100908.21
2019-04-27T20:15:51.248Z,100905.48
2019-04-27T20:18:22.195Z,100909.16
2019-04-27T20:20:50.639Z,100915.86
2019-04-27T20:23:22.273Z,100921.39
2019-04-27T20:25:49.196Z,100922.38
2019-04-27T20:28:17.621Z,100917.88
2019-04-27T20:30:46.071Z,100920.36
2019-04-27T20:33:14.521Z,100920.50
2019-04-27T20:35:42.970Z,100920.38
2019-04-27T20:38:13.004Z,100927.39
2019-04-27T20:40:42.406Z,100927.22
2019-04-27T20:43:10.867Z,100928.55
2019-04-27T20:45:41.245Z,100933.56
2019-04-27T20:48:11.189Z,100936.08
2019-04-27T20:50:41.207Z,100939.92
2019-04-27T20:53:12.649Z,100940.24
2019-04-27T20:55:41.163Z,100931.25
2019-04-27T20:58:10.915Z,100942.23
2019-04-27T21:00:41.759Z,100939.25
2019-04-27T21:03:12.496Z,100935.59
2019-04-27T21:05:45.083Z,100941.24
2019-04-27T21:08:15.196Z,100942.23
2019-04-27T21:10:43.594Z,100946.23
2019-04-27T21:13:15.044Z,100943.42
2019-04-27T21:15:48.026Z,100943.91
2019-04-27T21:18:16.819Z,100949.22
2019-04-27T21:20:45.215Z,100953.23
2019-04-27T21:23:13.627Z,100949.75
2019-04-27T21:25:42.315Z,100954.21
2019-04-27T21:28:16.397Z,100957.55
2019-04-27T21:30:40.932Z,100957.35
2019-04-27T21:33:11.323Z,100964.83
2019-04-27T21:35:39.670Z,100960.03
2019-04-27T21:38:08.090Z,100962.52
2019-04-27T21:40:36.990Z,100968.49
2019-04-27T21:43:06.551Z,100967.64
2019-04-27T21:45:36.100Z,100973.42
2019-04-27T21:48:04.580Z,100975.29
2019-04-27T21:50:33.012Z,100978.12
2019-04-27T21:53:15.360Z,100985.43
2019-04-27T21:55:44.700Z,100983.77
2019-04-27T21:58:14.135Z,100987.07
2019-04-27T22:00:44.204Z,100981.75
2019-04-27T22:03:16.967Z,100987.07
2019-04-27T22:05:45.390Z,100992.42
2019-04-27T22:08:13.810Z,100990.44
2019-04-27T22:10:42.292Z,100993.18
2019-04-27T22:13:10.737Z,100988.40
2019-04-27T22:15:39.219Z,100994.38
2019-04-27T22:18:07.811Z,100997.24
2019-04-27T22:20:36.675Z,100989.66
2019-04-27T22:23:13.083Z,100993.96
2019-04-27T22:25:42.159Z,100983.78
2019-04-27T22:28:11.756Z,100986.92
2019-04-27T22:30:40.453Z,100995.25
2019-04-27T22:33:08.880Z,100988.22
2019-04-27T22:35:37.305Z,100994.47
2019-04-27T22:38:05.730Z,100994.01
2019-04-27T22:40:47.207Z,101001.47
2019-04-27T22:43:35.042Z,100999.16
2019-04-27T22:46:15.117Z,101001.30
2019-04-27T22:48:43.545Z,101007.09
2019-04-27T22:51:11.944Z,101006.16
2019-04-27T22:53:41.065Z,101009.33
2019-04-27T22:56:13.578Z,101006.87
2019-04-27T22:58:43.077Z,101009.16
2019-04-27T23:01:15.989Z,101018.25
2019-04-27T23:03:46.044Z,101021.52
2019-04-27T23:06:14.467Z,101020.45
2019-04-27T23:08:42.904Z,101018.75
2019-04-27T23:11:13.950Z,101018.85
2019-04-27T23:13:42.366Z,101021.47
2019-04-27T23:16:12.451Z,101022.53
2019-04-27T23:18:41.361Z,101018.89
2019-04-27T23:21:13.066Z,101024.78
2019-04-27T23:23:41.318Z,101024.48
2019-04-27T23:26:11.831Z,101031.84
2019-04-27T23:28:42.554Z,101027.56
2019-04-27T23:31:15.314Z,101029.37
2019-04-27T23:33:46.499Z,101022.63
2019-04-27T23:36:14.927Z,101034.78
2019-04-27T23:38:43.333Z,101031.42
2019-04-27T23:41:11.794Z,101028.59
2019-04-27T23:43:41.198Z,101028.43
2019-04-27T23:46:11.505Z,101034.34
2019-04-27T23:48:41.845Z,101025.84
2019-04-27T23:51:28.853Z,101036.62
2019-04-27T23:53:57.343Z,101033.53
2019-04-27T23:56:28.747Z,101026.87
2019-04-27T23:58:57.191Z,101034.44
